Time;durP1;ratioP1;P1;durP2;ratioP2;P2;SDS_P1;SDS_P2;PMS_P1;PMS_P2;Temp;Humidity;BMP_temperature;BMP_pressure;BME280_temperature;BME280_humidity;BME280_pressure;Samples;Min_cycle;Max_cycle;Signal;HPM_P1;HPM_P2
2022/07/19 00:01:27;;;;;;;4.33;3.93;;;25.50;45.00;;;;;;5030289;28;20185;-43
2022/07/19 00:03:52;;;;;;;5.40;3.90;;;25.50;45.30;;;;;;5029631;28;20197;-43
2022/07/19 00:06:18;;;;;;;4.30;3.90;;;25.60;44.90;;;;;;5030286;28;20549;-42
2022/07/19 00:08:43;;;;;;;5.50;4.17;;;25.70;44.60;;;;;;5029410;28;20565;-42
2022/07/19 00:11:09;;;;;;;4.37;4.00;;;25.60;44.80;;;;;;5030073;28;20254;-43
2022/07/19 00:13:35;;;;;;;7.43;3.77;;;25.70;44.70;;;;;;5029805;28;20236;-43
2022/07/19 00:16:00;;;;;;;4.10;3.73;;;25.60;44.90;;;;;;5030329;28;20200;-43
2022/07/19 00:18:26;;;;;;;4.80;3.63;;;25.50;45.30;;;;;;5029115;28;20648;-43
2022/07/19 00:20:51;;;;;;;6.70;3.53;;;25.50;45.10;;;;;;5028432;28;20239;-44
2022/07/19 00:23:17;;;;;;;3.90;3.60;;;25.60;45.10;;;;;;5030116;28;20261;-43
2022/07/19 00:25:43;;;;;;;5.73;4.30;;;25.60;45.00;;;;;;5030202;28;20193;-42
2022/07/19 00:28:08;;;;;;;4.10;3.80;;;25.50;45.30;;;;;;5032237;28;20285;-43
2022/07/19 00:30:34;;;;;;;4.83;3.80;;;25.30;45.60;;;;;;5033796;28;20649;-43
2022/07/19 00:33:01;;;;;;;4.40;4.10;;;25.40;45.50;;;;;;5033413;28;20236;-43
2022/07/19 00:35:27;;;;;;;5.23;3.50;;;25.40;45.40;;;;;;5033771;28;20688;-43
2022/07/19 00:37:52;;;;;;;4.40;4.10;;;25.50;45.20;;;;;;5033287;28;20460;-42
2022/07/19 00:40:24;;;;;;;4.03;3.73;;;25.20;45.50;;;;;;5033462;28;20561;-43
2022/07/19 00:42:52;;;;;;;5.37;3.77;;;24.80;46.30;;;;;;5033176;28;20201;-43
2022/07/19 00:45:17;;;;;;;5.90;4.50;;;24.60;47.00;;;;;;5026434;28;20867;-43
2022/07/19 00:47:43;;;;;;;7.37;4.10;;;24.80;46.90;;;;;;5030956;28;20778;-43
2022/07/19 00:50:09;;;;;;;4.47;3.57;;;24.80;46.70;;;;;;5033722;28;20917;-43
2022/07/19 00:52:37;;;;;;;4.03;3.73;;;24.90;46.60;;;;;;5032662;28;20225;-43
2022/07/19 00:55:03;;;;;;;4.53;3.97;;;24.90;46.10;;;;;;5033287;28;20608;-43
2022/07/19 00:57:31;;;;;;;4.07;3.77;;;25.00;45.90;;;;;;5032757;28;20424;-43
2022/07/19 00:59:57;;;;;;;4.60;4.20;;;25.10;45.60;;;;;;5033421;28;20504;-42
2022/07/19 01:02:25;;;;;;;4.03;3.73;;;25.20;45.60;;;;;;5033140;28;20425;-43
2022/07/19 01:04:50;;;;;;;4.60;4.10;;;25.00;45.60;;;;;;5032951;28;20455;-44
2022/07/19 01:07:16;;;;;;;5.23;4.63;;;24.80;45.80;;;;;;5033329;28;20514;-43
2022/07/19 01:09:42;;;;;;;4.40;4.10;;;24.80;46.10;;;;;;5032279;28;20236;-43
2022/07/19 01:12:08;;;;;;;3.70;3.40;;;24.80;45.90;;;;;;5033173;28;20200;-43
2022/07/19 01:14:35;;;;;;;3.90;3.60;;;24.90;46.50;;;;;;5030966;28;20240;-43
2022/07/19 01:17:02;;;;;;;4.73;4.33;;;25.00;45.70;;;;;;5033167;28;20432;-43
2022/07/19 01:19:28;;;;;;;7.13;5.37;;;25.00;45.70;;;;;;5031996;28;20981;-43
2022/07/19 01:21:53;;;;;;;8.27;5.57;;;24.90;45.80;;;;;;5032781;28;20474;-44
2022/07/19 01:24:19;;;;;;;5.93;4.07;;;24.80;46.10;;;;;;5032298;28;20204;-43
2022/07/19 01:26:44;;;;;;;5.53;4.00;;;24.80;46.10;;;;;;5032889;28;20189;-43
2022/07/19 01:29:17;;;;;;;4.67;4.27;;;24.70;46.30;;;;;;5031692;28;20197;-43
2022/07/19 01:31:42;;;;;;;9.67;4.20;;;24.60;46.40;;;;;;5032841;28;20193;-43
2022/07/19 01:34:08;;;;;;;4.70;4.30;;;24.70;46.30;;;;;;5032439;28;20617;-43
2022/07/19 01:36:34;;;;;;;4.23;3.83;;;24.80;46.40;;;;;;5032786;28;20268;-43
2022/07/19 01:39:00;;;;;;;4.23;3.90;;;24.50;46.80;;;;;;5031259;28;20197;-42
2022/07/19 01:41:25;;;;;;;5.37;4.20;;;24.60;47.10;;;;;;5030881;28;20279;-43
2022/07/19 01:43:51;;;;;;;5.80;4.03;;;24.40;47.30;;;;;;5031996;28;20197;-44
2022/07/19 01:46:17;;;;;;;5.20;4.37;;;24.20;48.00;;;;;;5025661;28;20189;-43
2022/07/19 01:48:42;;;;;;;5.73;4.37;;;24.20;48.50;;;;;;5031451;28;20251;-43
2022/07/19 01:51:08;;;;;;;4.77;4.37;;;24.20;47.90;;;;;;5032290;28;20240;-42
2022/07/19 01:53:34;;;;;;;4.60;4.20;;;24.10;48.10;;;;;;5031679;28;20229;-43
2022/07/19 01:56:03;;;;;;;4.27;3.97;;;24.00;48.20;;;;;;5032492;28;20828;-42
2022/07/19 01:58:28;;;;;;;5.03;4.50;;;24.10;48.00;;;;;;5031300;28;20193;-42
2022/07/19 02:00:54;;;;;;;5.60;4.13;;;24.30;47.60;;;;;;5032260;28;20830;-43
2022/07/19 02:03:20;;;;;;;4.00;3.70;;;24.20;47.80;;;;;;5031797;28;20193;-42
2022/07/19 02:05:45;;;;;;;4.20;3.90;;;24.20;48.00;;;;;;5032105;28;20193;-42
2022/07/19 02:08:11;;;;;;;4.77;4.00;;;23.90;48.60;;;;;;5029305;28;20284;-43
2022/07/19 02:10:36;;;;;;;5.50;4.20;;;23.90;48.40;;;;;;5032342;28;20204;-43
2022/07/19 02:13:02;;;;;;;4.30;4.00;;;24.00;48.10;;;;;;5031433;28;20269;-43
2022/07/19 02:15:28;;;;;;;4.90;4.50;;;24.10;48.00;;;;;;5031978;28;20239;-43
2022/07/19 02:17:55;;;;;;;4.90;4.50;;;23.90;48.10;;;;;;5030764;28;20292;-43
2022/07/19 02:20:21;;;;;;;4.90;3.60;;;23.90;48.10;;;;;;5032048;28;20198;-43
2022/07/19 02:22:47;;;;;;;4.43;4.07;;;23.90;48.00;;;;;;5031184;28;20451;-43
2022/07/19 02:25:13;;;;;;;4.70;4.30;;;24.00;47.90;;;;;;5031887;28;20272;-44
2022/07/19 02:27:39;;;;;;;5.60;4.03;;;24.00;47.80;;;;;;5030643;28;20193;-42
2022/07/19 02:30:06;;;;;;;4.47;3.97;;;23.80;48.00;;;;;;5031880;28;20420;-43
2022/07/19 02:32:32;;;;;;;3.83;3.63;;;23.80;48.20;;;;;;5030836;28;20456;-42
2022/07/19 02:34:57;;;;;;;5.13;4.73;;;23.70;48.40;;;;;;5030069;28;20537;-43
2022/07/19 02:37:23;;;;;;;5.00;4.60;;;23.60;48.50;;;;;;5030883;28;20704;-43
2022/07/19 02:39:48;;;;;;;6.13;4.60;;;23.60;48.50;;;;;;5031147;28;20272;-44
2022/07/19 02:42:14;;;;;;;4.93;4.53;;;23.40;48.90;;;;;;5031462;28;20328;-43
2022/07/19 02:44:41;;;;;;;4.87;4.47;;;23.40;49.20;;;;;;5025642;28;20295;-43
2022/07/19 02:47:06;;;;;;;4.23;3.93;;;23.40;49.00;;;;;;5029906;28;20427;-42
2022/07/19 02:49:32;;;;;;;7.70;3.90;;;23.50;48.90;;;;;;5029745;28;20268;-43
2022/07/19 02:51:57;;;;;;;5.07;4.57;;;23.50;48.90;;;;;;5031238;28;20649;-43
2022/07/19 02:54:23;;;;;;;4.23;3.93;;;23.40;49.00;;;;;;5030443;28;20275;-43
2022/07/19 02:56:49;;;;;;;6.07;4.53;;;23.40;49.20;;;;;;5031196;28;20621;-42
2022/07/19 02:59:14;;;;;;;3.97;3.67;;;23.20;49.50;;;;;;5030237;28;20189;-42
2022/07/19 03:01:40;;;;;;;4.87;4.27;;;23.10;49.60;;;;;;5029608;28;20189;-42
2022/07/19 03:04:05;;;;;;;4.70;4.30;;;23.10;49.80;;;;;;5030403;28;20292;-43
2022/07/19 03:06:31;;;;;;;4.37;4.07;;;23.10;49.70;;;;;;5031234;28;20201;-42
2022/07/19 03:08:57;;;;;;;4.83;4.40;;;23.10;49.80;;;;;;5030143;28;20243;-42
2022/07/19 03:11:22;;;;;;;4.60;4.20;;;22.90;50.40;;;;;;5030913;28;20197;-43
2022/07/19 03:13:48;;;;;;;4.00;3.70;;;22.60;50.90;;;;;;5030324;28;20315;-44
2022/07/19 03:16:14;;;;;;;4.30;3.80;;;22.60;51.10;;;;;;5030553;28;20252;-44
2022/07/19 03:18:39;;;;;;;4.50;4.20;;;22.50;51.10;;;;;;5029865;28;20194;-42
2022/07/19 03:21:05;;;;;;;4.70;4.30;;;22.60;51.10;;;;;;5030865;28;20197;-43
2022/07/19 03:23:33;;;;;;;7.50;4.30;;;22.70;50.80;;;;;;5030441;28;20255;-42
2022/07/19 03:25:59;;;;;;;4.60;4.30;;;22.80;50.40;;;;;;5030570;28;20189;-43
2022/07/19 03:28:24;;;;;;;6.13;3.93;;;22.50;51.50;;;;;;5028155;28;20428;-43
2022/07/19 03:30:50;;;;;;;5.33;4.77;;;22.30;51.70;;;;;;5030483;28;20428;-43
2022/07/19 03:33:16;;;;;;;4.40;4.00;;;22.20;51.90;;;;;;5029951;28;20244;-42
2022/07/19 03:35:43;;;;;;;5.50;4.60;;;22.00;52.40;;;;;;5030338;28;20653;-42
2022/07/19 03:38:10;;;;;;;5.40;5.00;;;22.10;52.00;;;;;;5029623;28;20232;-43
2022/07/19 03:40:36;;;;;;;4.33;4.03;;;22.30;51.70;;;;;;5030569;28;20428;-43
2022/07/19 03:43:01;;;;;;;5.07;4.00;;;22.20;51.70;;;;;;5029753;28;20435;-43
2022/07/19 03:45:27;;;;;;;6.20;4.97;;;22.40;51.40;;;;;;5026985;28;20185;-43
2022/07/19 03:47:53;;;;;;;4.47;4.13;;;22.50;51.20;;;;;;5029565;28;20307;-43
2022/07/19 03:50:18;;;;;;;4.70;4.30;;;22.50;50.90;;;;;;5030537;28;20205;-43
2022/07/19 03:52:45;;;;;;;5.33;4.80;;;22.50;51.10;;;;;;5029808;28;20686;-42
2022/07/19 03:55:10;;;;;;;4.80;4.17;;;22.40;51.30;;;;;;5028596;28;20271;-43
2022/07/19 03:57:36;;;;;;;4.97;4.57;;;22.40;51.40;;;;;;5029647;28;20927;-42
2022/07/19 04:00:03;;;;;;;5.93;4.50;;;22.50;51.30;;;;;;5030203;28;20197;-44
2022/07/19 04:02:29;;;;;;;4.63;4.23;;;22.60;50.90;;;;;;5033672;28;20251;-43
2022/07/19 04:04:54;;;;;;;4.70;4.20;;;22.70;50.50;;;;;;5034453;28;20458;-43
2022/07/19 04:07:20;;;;;;;4.67;4.27;;;22.80;50.40;;;;;;5033967;28;20660;-42
2022/07/19 04:09:45;;;;;;;5.00;4.60;;;22.60;50.50;;;;;;5033857;28;20193;-42
2022/07/19 04:12:11;;;;;;;5.93;5.43;;;22.70;50.40;;;;;;5034322;28;20692;-43
2022/07/19 04:14:36;;;;;;;4.33;4.03;;;22.70;50.30;;;;;;5033362;28;20224;-43
2022/07/19 04:17:04;;;;;;;5.03;4.63;;;22.70;50.50;;;;;;5034064;28;20205;-43
2022/07/19 04:19:30;;;;;;;5.00;4.50;;;22.70;50.40;;;;;;5033421;28;20205;-43
2022/07/19 04:21:56;;;;;;;4.60;4.20;;;22.50;50.60;;;;;;5032671;28;20424;-42
2022/07/19 04:24:21;;;;;;;7.13;4.83;;;22.50;50.90;;;;;;5033433;28;20423;-42
2022/07/19 04:26:47;;;;;;;7.37;4.30;;;22.50;50.90;;;;;;5034098;28;20196;-44
2022/07/19 04:29:12;;;;;;;5.33;4.90;;;22.50;50.90;;;;;;5033092;28;20193;-42
2022/07/19 04:31:38;;;;;;;4.50;4.20;;;22.50;50.90;;;;;;5034124;28;20671;-43
2022/07/19 04:34:04;;;;;;;5.50;5.00;;;22.10;51.60;;;;;;5032902;28;20233;-43
2022/07/19 04:36:29;;;;;;;5.10;4.67;;;21.70;52.90;;;;;;5033794;28;20653;-42
2022/07/19 04:38:55;;;;;;;5.20;4.80;;;21.50;53.60;;;;;;5032801;28;20193;-42
2022/07/19 04:41:20;;;;;;;5.60;5.10;;;21.70;53.30;;;;;;5033651;28;20647;-43
2022/07/19 04:43:46;;;;;;;5.10;4.60;;;21.80;53.10;;;;;;5032872;28;20197;-42
2022/07/19 04:46:12;;;;;;;7.33;5.20;;;21.90;52.80;;;;;;5026805;28;20225;-44
2022/07/19 04:48:37;;;;;;;9.80;5.20;;;21.80;52.90;;;;;;5031132;28;20193;-42
2022/07/19 04:51:03;;;;;;;6.00;5.37;;;21.70;53.30;;;;;;5033377;28;20204;-42
2022/07/19 04:53:30;;;;;;;4.93;4.43;;;21.80;53.10;;;;;;5033031;28;20220;-42
2022/07/19 04:55:56;;;;;;;4.60;4.20;;;21.90;52.50;;;;;;5033701;28;20181;-42
2022/07/19 04:58:21;;;;;;;6.50;5.20;;;21.40;54.00;;;;;;5032353;28;20467;-42
2022/07/19 05:00:47;;;;;;;5.43;4.60;;;21.40;54.00;;;;;;5033168;28;20232;-43
2022/07/19 05:03:12;;;;;;;5.93;5.30;;;21.60;53.30;;;;;;5032695;28;20196;-42
2022/07/19 05:05:38;;;;;;;11.10;4.93;;;22.00;52.60;;;;;;5033407;28;20197;-42
2022/07/19 05:08:04;;;;;;;6.70;5.83;;;22.20;51.90;;;;;;5032540;28;20189;-42
2022/07/19 05:10:30;;;;;;;5.70;5.20;;;22.40;51.60;;;;;;5033175;28;20661;-44
2022/07/19 05:12:55;;;;;;;4.90;4.50;;;22.20;51.90;;;;;;5031756;28;20467;-44
2022/07/19 05:15:21;;;;;;;5.60;5.10;;;22.10;52.60;;;;;;5031595;28;20515;-43
2022/07/19 05:17:46;;;;;;;6.60;5.90;;;22.20;52.20;;;;;;5032044;28;20195;-45
2022/07/19 05:20:15;;;;;;;5.47;4.90;;;22.30;52.00;;;;;;5033022;28;20645;-43
2022/07/19 05:22:41;;;;;;;6.00;5.03;;;22.50;51.60;;;;;;5032185;28;20721;-42
2022/07/19 05:25:09;;;;;;;5.80;5.30;;;22.70;51.20;;;;;;5032898;28;20499;-43
2022/07/19 05:27:34;;;;;;;8.40;5.10;;;22.80;50.90;;;;;;5031969;28;20420;-43
2022/07/19 05:30:00;;;;;;;10.03;5.20;;;23.00;50.70;;;;;;5032912;28;20427;-43
2022/07/19 05:32:26;;;;;;;5.20;4.80;;;23.10;50.40;;;;;;5032459;28;20220;-44
2022/07/19 05:34:51;;;;;;;4.93;4.53;;;23.30;49.80;;;;;;5032366;28;20303;-43
2022/07/19 05:37:17;;;;;;;4.87;4.47;;;23.40;49.40;;;;;;5031827;28;20225;-44
2022/07/19 05:39:43;;;;;;;4.93;4.30;;;23.50;49.40;;;;;;5032018;28;20239;-44
2022/07/19 05:42:08;;;;;;;4.60;4.20;;;23.60;49.10;;;;;;5031003;28;20726;-43
2022/07/19 05:44:34;;;;;;;4.50;4.10;;;23.60;49.30;;;;;;5027686;28;20440;-44
2022/07/19 05:47:00;;;;;;;5.40;4.10;;;23.50;49.50;;;;;;5029372;28;20205;-42
2022/07/19 05:49:25;;;;;;;4.63;4.23;;;23.40;49.50;;;;;;5031707;28;20899;-42
2022/07/19 05:51:51;;;;;;;6.97;3.83;;;23.50;49.40;;;;;;5032328;28;20193;-44
2022/07/19 05:54:17;;;;;;;4.70;4.40;;;23.60;49.20;;;;;;5031843;28;20220;-43
2022/07/19 05:56:43;;;;;;;7.17;4.90;;;23.90;48.90;;;;;;5031989;28;20197;-45
2022/07/19 05:59:08;;;;;;;5.00;4.50;;;23.90;49.20;;;;;;5031624;28;20424;-43
2022/07/19 06:01:34;;;;;;;5.03;4.63;;;23.60;49.70;;;;;;5032140;28;20216;-44
2022/07/19 06:04:00;;;;;;;5.60;5.10;;;23.80;49.50;;;;;;5031308;28;20198;-43
2022/07/19 06:06:28;;;;;;;9.20;6.23;;;23.90;49.60;;;;;;5032199;28;20196;-43
2022/07/19 06:08:54;;;;;;;7.77;5.80;;;23.90;49.40;;;;;;5029455;28;20420;-43
2022/07/19 06:11:20;;;;;;;6.90;5.33;;;24.00;49.20;;;;;;5032120;28;20420;-43
2022/07/19 06:13:47;;;;;;;5.77;4.77;;;24.10;49.20;;;;;;5031373;28;20549;-44
2022/07/19 06:16:13;;;;;;;6.37;5.23;;;24.50;48.70;;;;;;5031824;28;20185;-43
2022/07/19 06:18:39;;;;;;;6.80;5.30;;;24.70;48.30;;;;;;5031398;28;20450;-43
2022/07/19 06:21:08;;;;;;;5.10;4.70;;;24.90;47.40;;;;;;5031940;28;20428;-43
2022/07/19 06:23:34;;;;;;;5.20;4.30;;;25.00;47.00;;;;;;5031328;28;20942;-43
2022/07/19 06:26:00;;;;;;;5.30;4.80;;;25.20;46.90;;;;;;5031560;28;20421;-43
2022/07/19 06:28:26;;;;;;;5.53;5.10;;;25.30;46.60;;;;;;5030739;28;20201;-42
2022/07/19 06:30:52;;;;;;;5.50;5.00;;;25.50;46.10;;;;;;5031743;28;20197;-43
2022/07/19 06:33:18;;;;;;;5.73;5.13;;;25.60;46.30;;;;;;5031150;28;20487;-43
2022/07/19 06:35:45;;;;;;;7.50;4.90;;;25.90;46.00;;;;;;5029777;28;20428;-43
2022/07/19 06:38:10;;;;;;;5.17;4.63;;;26.10;46.40;;;;;;5030381;28;20822;-44
2022/07/19 06:40:36;;;;;;;7.27;4.70;;;26.30;45.00;;;;;;5031731;28;20428;-43
2022/07/19 06:43:02;;;;;;;5.93;4.63;;;26.60;44.60;;;;;;5031013;28;20752;-44
2022/07/19 06:45:27;;;;;;;5.23;4.40;;;26.80;44.30;;;;;;5024333;28;20193;-44
2022/07/19 06:47:53;;;;;;;6.83;4.80;;;27.10;43.70;;;;;;5030728;28;20246;-45
2022/07/19 06:50:20;;;;;;;5.20;4.03;;;27.30;43.60;;;;;;5031184;28;20239;-46
2022/07/19 06:52:45;;;;;;;4.83;4.40;;;27.60;42.60;;;;;;5030682;28;20224;-43
2022/07/19 06:55:11;;;;;;;5.40;4.83;;;27.70;42.00;;;;;;5031265;28;20522;-46
2022/07/19 06:57:36;;;;;;;5.27;4.77;;;27.90;41.60;;;;;;5030292;28;20227;-45
2022/07/19 07:00:04;;;;;;;4.90;4.40;;;28.10;41.40;;;;;;5030976;28;20248;-43
2022/07/19 07:02:30;;;;;;;4.30;3.90;;;28.30;40.70;;;;;;5029102;28;21107;-44
2022/07/19 07:04:55;;;;;;;7.80;4.17;;;28.40;40.80;;;;;;5031061;28;20420;-43
2022/07/19 07:07:21;;;;;;;3.90;3.53;;;28.40;40.30;;;;;;5030479;28;20229;-44
2022/07/19 07:09:47;;;;;;;5.20;3.70;;;28.60;40.00;;;;;;5030356;28;20194;-43
2022/07/19 07:12:12;;;;;;;5.03;4.47;;;28.80;39.80;;;;;;5030875;28;20236;-43
2022/07/19 07:14:38;;;;;;;5.47;3.70;;;28.90;39.30;;;;;;5030294;28;20635;-45
2022/07/19 07:17:03;;;;;;;7.27;3.53;;;29.20;39.50;;;;;;5030566;28;20228;-43
2022/07/19 07:19:29;;;;;;;3.20;2.90;;;29.40;38.60;;;;;;5030182;28;20601;-43
2022/07/19 07:21:57;;;;;;;3.73;3.20;;;29.80;38.20;;;;;;5030575;28;20216;-44
2022/07/19 07:24:23;;;;;;;4.20;2.70;;;29.90;36.30;;;;;;5030111;28;20197;-43
2022/07/19 07:26:48;;;;;;;2.67;2.50;;;30.20;36.00;;;;;;5030403;28;20432;-47
2022/07/19 07:29:14;;;;;;;3.10;2.80;;;30.10;34.50;;;;;;5029227;28;20193;-44
2022/07/19 07:31:39;;;;;;;3.53;2.77;;;30.10;34.30;;;;;;5030005;28;20197;-45
2022/07/19 07:34:05;;;;;;;2.87;2.67;;;30.40;34.60;;;;;;5030191;28;20224;-44
2022/07/19 07:36:31;;;;;;;8.17;2.67;;;30.60;34.10;;;;;;5029754;28;20241;-47
2022/07/19 07:38:56;;;;;;;4.00;2.67;;;30.90;33.80;;;;;;5029607;28;20737;-45
2022/07/19 07:41:22;;;;;;;4.80;2.20;;;31.00;31.50;;;;;;5031002;28;20681;-43
2022/07/19 07:43:47;;;;;;;5.60;2.87;;;30.90;31.30;;;;;;5030025;28;20197;-44
2022/07/19 07:46:13;;;;;;;2.60;2.40;;;31.00;31.70;;;;;;5030218;28;20911;-45
2022/07/19 07:48:39;;;;;;;4.70;2.90;;;31.30;32.20;;;;;;5029577;28;20201;-47
2022/07/19 07:51:05;;;;;;;2.80;2.60;;;31.60;31.20;;;;;;5030553;28;20279;-47
2022/07/19 07:53:30;;;;;;;2.63;2.43;;;32.00;30.60;;;;;;5029956;28;20235;-44
2022/07/19 07:55:56;;;;;;;2.83;2.60;;;32.00;30.10;;;;;;5030215;28;20436;-45
2022/07/19 07:58:22;;;;;;;2.67;2.43;;;32.20;30.70;;;;;;5027860;28;20601;-47
2022/07/19 08:00:48;;;;;;;2.90;2.60;;;32.30;29.80;;;;;;5030314;28;20272;-48
2022/07/19 08:03:13;;;;;;;2.43;2.27;;;32.50;29.70;;;;;;5029649;28;20205;-46
2022/07/19 08:05:39;;;;;;;2.53;2.33;;;32.70;29.60;;;;;;5030438;28;20212;-44
2022/07/19 08:08:05;;;;;;;2.47;2.30;;;32.90;29.40;;;;;;5029185;28;20192;-47
2022/07/19 08:10:32;;;;;;;2.93;2.70;;;33.10;28.70;;;;;;5030352;28;20197;-48
2022/07/19 08:12:57;;;;;;;4.30;2.57;;;33.10;28.40;;;;;;5029446;28;20462;-43
2022/07/19 08:15:23;;;;;;;5.43;3.00;;;33.20;28.50;;;;;;5030321;28;20427;-44
2022/07/19 08:17:49;;;;;;;2.83;2.47;;;33.40;27.90;;;;;;5029194;28;20196;-47
2022/07/19 08:20:14;;;;;;;3.77;2.33;;;33.50;28.00;;;;;;5030334;28;20207;-44
2022/07/19 08:22:41;;;;;;;5.63;2.53;;;33.60;27.30;;;;;;5029530;28;20239;-44
2022/07/19 08:25:07;;;;;;;5.37;2.53;;;33.80;27.60;;;;;;5028683;28;20193;-48
2022/07/19 08:27:33;;;;;;;3.67;2.37;;;34.00;27.20;;;;;;5028910;28;20428;-44
2022/07/19 08:29:59;;;;;;;4.83;2.50;;;34.10;27.00;;;;;;5030098;28;20964;-48
2022/07/19 08:32:24;;;;;;;2.87;2.67;;;34.30;27.00;;;;;;5029873;28;20284;-44
2022/07/19 08:34:50;;;;;;;2.70;2.50;;;34.50;26.60;;;;;;5029636;28;20562;-44
2022/07/19 08:37:16;;;;;;;4.17;2.83;;;34.70;26.50;;;;;;5029529;28;20232;-46
2022/07/19 08:39:41;;;;;;;2.70;2.50;;;35.00;26.20;;;;;;5029289;28;20251;-44
2022/07/19 08:42:09;;;;;;;2.67;2.57;;;35.10;26.00;;;;;;5030043;28;20661;-44
2022/07/19 08:44:39;;;;;;;3.30;3.00;;;35.20;26.10;;;;;;5025316;28;20182;-44
2022/07/19 08:47:06;;;;;;;2.40;2.20;;;35.20;25.40;;;;;;5028110;28;20891;-44
2022/07/19 08:49:32;;;;;;;2.43;2.23;;;35.40;25.70;;;;;;5032695;28;20915;-43
2022/07/19 08:51:58;;;;;;;4.30;2.87;;;35.70;25.20;;;;;;5032046;28;20782;-44
2022/07/19 08:54:24;;;;;;;3.00;2.47;;;35.90;24.80;;;;;;5033054;28;20537;-44
2022/07/19 08:59:34;;;;;;;2.67;1.90;;;36.10;24.80;;;;;;5032893;28;20204;-44
2022/07/19 09:01:59;;;;;;;3.73;3.03;;;35.90;24.00;;;;;;5033158;28;21143;-45
2022/07/19 09:04:27;;;;;;;2.70;2.47;;;36.10;23.60;;;;;;5032805;28;20263;-45
2022/07/19 09:06:54;;;;;;;3.63;2.53;;;35.70;24.70;;;;;;5032951;28;20507;-44
2022/07/19 09:09:34;;;;;;;3.73;2.50;;;35.90;23.60;;;;;;5032603;28;20423;-45
2022/07/19 09:12:00;;;;;;;5.40;2.20;;;36.30;23.80;;;;;;5033275;28;20504;-44
2022/07/19 09:14:29;;;;;;;1.93;1.80;;;36.40;22.90;;;;;;5032480;28;20486;-44
2022/07/19 09:17:01;;;;;;;2.63;2.40;;;36.30;22.50;;;;;;5032752;28;20432;-44
2022/07/19 09:19:27;;;;;;;4.20;2.40;;;36.00;22.50;;;;;;5031474;28;20435;-45
2022/07/19 09:22:02;;;;;;;4.43;2.93;;;35.70;23.10;;;;;;5032984;28;20431;-44
2022/07/19 09:24:31;;;;;;;2.87;2.20;;;35.90;23.10;;;;;;5032246;28;20433;-45
2022/07/19 09:27:07;;;;;;;3.60;2.80;;;36.30;22.80;;;;;;5032426;28;20928;-44
2022/07/19 09:29:38;;;;;;;2.83;2.73;;;36.60;22.20;;;;;;5032422;28;20986;-44
2022/07/19 09:32:08;;;;;;;3.07;2.80;;;36.50;22.20;;;;;;5032921;28;20922;-45
2022/07/19 09:34:37;;;;;;;6.70;4.70;;;36.80;21.90;;;;;;5032209;28;20518;-46
2022/07/19 09:37:26;;;;;;;4.70;3.87;;;37.00;22.30;;;;;;5032081;28;20459;-44
2022/07/19 09:39:54;;;;;;;3.67;3.37;;;36.90;21.60;;;;;;5032518;28;20442;-44
2022/07/19 09:42:23;;;;;;;4.27;2.90;;;37.00;21.40;;;;;;5032647;28;20430;-44
2022/07/19 09:44:58;;;;;;;4.10;2.67;;;37.30;22.00;;;;;;5024327;28;20534;-44
2022/07/19 09:47:34;;;;;;;3.27;2.97;;;37.50;21.40;;;;;;5019093;28;20438;-45
2022/07/19 09:50:03;;;;;;;6.23;3.40;;;37.60;21.70;;;;;;5032551;28;20435;-44
2022/07/19 09:52:29;;;;;;;5.07;3.53;;;37.60;21.40;;;;;;5032438;28;20431;-45
2022/07/19 09:54:55;;;;;;;9.53;3.40;;;37.40;21.10;;;;;;5032263;28;20482;-44
2022/07/19 09:57:26;;;;;;;3.97;3.03;;;37.60;21.00;;;;;;5032092;28;20455;-45
2022/07/19 09:59:54;;;;;;;3.70;3.40;;;37.40;21.50;;;;;;5031836;28;20533;-44
2022/07/19 10:02:23;;;;;;;3.20;2.90;;;37.50;21.70;;;;;;5032618;28;20780;-46
2022/07/19 10:04:50;;;;;;;3.23;3.03;;;37.80;21.70;;;;;;5031808;28;20431;-45
2022/07/19 10:07:17;;;;;;;3.70;3.40;;;37.70;21.50;;;;;;5031802;28;20427;-45
2022/07/19 10:09:44;;;;;;;3.17;2.83;;;37.90;21.30;;;;;;5031543;28;20514;-45
2022/07/19 10:12:11;;;;;;;3.30;3.00;;;38.20;20.70;;;;;;5030794;28;20423;-44
2022/07/19 10:14:37;;;;;;;5.20;4.50;;;38.40;20.90;;;;;;5031194;28;20491;-44
2022/07/19 10:17:28;;;;;;;3.60;3.30;;;38.70;20.50;;;;;;5031764;28;20837;-45
2022/07/19 10:19:55;;;;;;;3.57;3.27;;;38.50;20.80;;;;;;5031979;28;20192;-45
2022/07/19 10:22:24;;;;;;;3.50;3.20;;;38.60;20.70;;;;;;5032107;28;21123;-44
2022/07/19 10:24:59;;;;;;;3.70;3.30;;;38.80;20.00;;;;;;5031357;28;20427;-44
2022/07/19 10:27:25;;;;;;;8.53;3.83;;;39.10;20.20;;;;;;5031635;28;20435;-44
2022/07/19 10:29:52;;;;;;;5.57;3.77;;;39.20;20.10;;;;;;5031461;28;20424;-45
2022/07/19 10:32:18;;;;;;;4.00;3.00;;;39.20;20.30;;;;;;5031815;28;20202;-44
2022/07/19 10:34:47;;;;;;;4.43;3.20;;;39.30;19.90;;;;;;5030988;28;20482;-44
2022/07/19 10:37:13;;;;;;;3.70;3.00;;;39.50;19.30;;;;;;5031175;28;20286;-44
2022/07/19 10:39:40;;;;;;;3.87;3.17;;;39.40;19.50;;;;;;5029748;28;20423;-45
2022/07/19 10:42:17;;;;;;;3.80;3.40;;;39.50;19.50;;;;;;5031742;28;20189;-44
2022/07/19 10:45:01;;;;;;;4.20;3.30;;;39.60;19.10;;;;;;5025319;28;20979;-44
2022/07/19 10:47:39;;;;;;;4.47;3.90;;;39.70;19.50;;;;;;5018707;28;20447;-45
2022/07/19 10:50:07;;;;;;;6.20;3.40;;;39.90;19.50;;;;;;5031318;28;20526;-45
2022/07/19 10:52:37;;;;;;;3.90;3.60;;;39.80;19.20;;;;;;5030615;28;20428;-45
2022/07/19 10:55:19;;;;;;;3.40;3.13;;;39.60;19.50;;;;;;5031214;28;20451;-44
2022/07/19 10:57:49;;;;;;;3.37;3.03;;;39.50;19.50;;;;;;5030297;28;20447;-44
2022/07/19 11:00:25;;;;;;;3.40;3.10;;;39.30;19.70;;;;;;5031378;28;20433;-44
2022/07/19 11:03:20;;;;;;;3.50;3.20;;;39.60;19.40;;;;;;5025091;28;20629;-45
2022/07/19 11:05:58;;;;;;;4.20;3.40;;;39.90;19.20;;;;;;5029478;28;20451;-45
2022/07/19 11:08:33;;;;;;;3.80;3.40;;;39.90;19.10;;;;;;5030117;28;20439;-44
2022/07/19 11:11:07;;;;;;;4.23;3.30;;;40.10;19.20;;;;;;5030395;28;20554;-45
2022/07/19 11:13:34;;;;;;;4.13;3.57;;;40.50;19.10;;;;;;5030282;28;20474;-44
2022/07/19 11:16:02;;;;;;;4.30;3.90;;;40.60;18.30;;;;;;5030897;28;20958;-44
2022/07/19 11:18:37;;;;;;;3.97;3.30;;;40.70;18.70;;;;;;5030093;28;21027;-44
2022/07/19 11:21:05;;;;;;;3.37;3.00;;;40.70;18.80;;;;;;5030921;28;20942;-45
2022/07/19 11:23:34;;;;;;;5.13;3.10;;;40.50;18.60;;;;;;5030204;28;20428;-44
2022/07/19 11:26:20;;;;;;;6.93;3.53;;;40.70;18.80;;;;;;5030851;28;20711;-44
2022/07/19 11:28:49;;;;;;;5.53;3.40;;;40.80;18.60;;;;;;5030369;28;21239;-44
2022/07/19 11:31:18;;;;;;;3.30;3.10;;;40.90;18.50;;;;;;5030843;28;20470;-45
2022/07/19 11:33:46;;;;;;;7.47;3.57;;;40.90;18.60;;;;;;5028353;28;20478;-44
2022/07/19 11:36:15;;;;;;;3.30;3.10;;;40.60;18.10;;;;;;5030765;28;20498;-45
2022/07/19 11:38:48;;;;;;;3.97;2.63;;;40.20;18.80;;;;;;5029474;28;20435;-46
2022/07/19 11:41:28;;;;;;;5.17;3.40;;;40.10;18.90;;;;;;5030804;28;20522;-45
2022/07/19 11:43:57;;;;;;;4.40;3.50;;;39.80;18.80;;;;;;5030086;28;20930;-45
2022/07/19 11:46:25;;;;;;;3.50;3.13;;;39.70;19.20;;;;;;5023340;28;20427;-45
2022/07/19 11:48:59;;;;;;;5.23;3.50;;;39.60;19.10;;;;;;5029956;28;20759;-44
2022/07/19 11:51:25;;;;;;;5.33;3.37;;;39.90;19.00;;;;;;5030687;28;20492;-45
2022/07/19 11:53:54;;;;;;;7.47;3.57;;;40.50;19.50;;;;;;5030167;28;20526;-45
2022/07/19 11:56:28;;;;;;;6.70;4.73;;;40.90;18.70;;;;;;5030125;28;20502;-44
2022/07/19 11:58:55;;;;;;;5.17;3.70;;;41.20;18.60;;;;;;5028022;28;20493;-45
2022/07/19 12:01:38;;;;;;;3.60;3.30;;;41.10;18.40;;;;;;5030501;28;20923;-45
2022/07/19 12:04:07;;;;;;;3.00;2.80;;;41.20;18.50;;;;;;5030059;28;20991;-44
2022/07/19 12:06:38;;;;;;;4.70;3.70;;;41.20;18.20;;;;;;5029873;28;20868;-46
2022/07/19 12:09:09;;;;;;;4.63;3.37;;;41.50;18.10;;;;;;5029880;28;20423;-47
2022/07/19 12:11:43;;;;;;;3.43;3.13;;;41.90;17.90;;;;;;5030309;28;20941;-48
2022/07/19 12:14:30;;;;;;;3.87;3.50;;;42.00;17.80;;;;;;5029499;28;20575;-49
2022/07/19 12:17:21;;;;;;;4.43;3.23;;;42.00;17.70;;;;;;5029935;28;20200;-49
2022/07/19 12:20:09;;;;;;;5.90;3.70;;;40.90;17.80;;;;;;5029931;28;20450;-49
2022/07/19 12:22:40;;;;;;;4.30;3.93;;;41.10;17.80;;;;;;5031898;28;20799;-49
2022/07/19 12:25:07;;;;;;;3.70;3.40;;;41.60;18.10;;;;;;5034227;28;20423;-48
2022/07/19 12:27:33;;;;;;;4.27;3.77;;;41.80;18.00;;;;;;5031539;28;20798;-45
2022/07/19 12:30:02;;;;;;;5.30;3.63;;;41.90;17.90;;;;;;5034268;28;20204;-49
2022/07/19 12:32:34;;;;;;;4.33;3.80;;;42.10;17.60;;;;;;5034061;28;20188;-45
2022/07/19 12:35:11;;;;;;;4.50;3.57;;;42.30;17.90;;;;;;5034005;28;20228;-50
2022/07/19 12:37:40;;;;;;;5.20;4.10;;;42.50;17.70;;;;;;5033161;28;20469;-44
2022/07/19 12:40:07;;;;;;;4.00;3.75;;;42.60;17.50;;;;;;5034016;28;20211;-48
2022/07/19 12:42:59;;;;;;;4.72;3.85;;;42.60;18.10;;;;;;5033265;28;20197;-46
2022/07/19 12:45:27;;;;;;;3.70;3.50;;;42.60;17.90;;;;;;5026188;28;20203;-45
2022/07/19 12:47:53;;;;;;;7.50;3.85;;;42.80;17.50;;;;;;5032881;28;20671;-48
2022/07/19 12:50:27;;;;;;;4.45;4.05;;;42.50;17.50;;;;;;5033835;28;20203;-45
2022/07/19 12:52:54;;;;;;;6.80;4.00;;;42.30;17.80;;;;;;5031338;28;20574;-48